sensor_id;sensor_type;location;lat;lon;timestamp;pressure;altitude;pressure_sealevel;temperature;humidity
28588;BME280;15787;49.662;10.162;2022-08-01T00:01:47;98980.63;;;21.96;70.03
28588;BME280;15787;49.662;10.162;2022-08-01T00:04:14;98975.16;;;21.93;69.92
28588;BME280;15787;49.662;10.162;2022-08-01T00:06:42;98978.81;;;21.99;70.20
28588;BME280;15787;49.662;10.162;2022-08-01T00:09:10;98976.19;;;21.90;69.32
28588;BME280;15787;49.662;10.162;2022-08-01T00:11:49;98974.66;;;21.94;69.55
28588;BME280;15787;49.662;10.162;2022-08-01T00:14:25;98979.16;;;21.70;71.83
28588;BME280;15787;49.662;10.162;2022-08-01T00:16:59;98973.25;;;21.73;71.86
28588;BME280;15787;49.662;10.162;2022-08-01T00:19:33;98976.72;;;21.88;71.47
28588;BME280;15787;49.662;10.162;2022-08-01T00:22:01;98977.75;;;21.91;71.47
28588;BME280;15787;49.662;10.162;2022-08-01T00:24:30;98973.53;;;21.81;71.56
28588;BME280;15787;49.662;10.162;2022-08-01T00:26:57;98976.22;;;21.95;71.22
28588;BME280;15787;49.662;10.162;2022-08-01T00:29:25;98979.31;;;21.97;70.89
28588;BME280;15787;49.662;10.162;2022-08-01T00:32:15;98985.03;;;21.55;71.19
28588;BME280;15787;49.662;10.162;2022-08-01T00:34:43;98981.44;;;21.60;71.33
28588;BME280;15787;49.662;10.162;2022-08-01T00:37:10;98980.66;;;21.60;71.92
28588;BME280;15787;49.662;10.162;2022-08-01T00:39:41;98981.94;;;21.59;71.67
28588;BME280;15787;49.662;10.162;2022-08-01T00:42:10;98985.31;;;21.63;71.35
28588;BME280;15787;49.662;10.162;2022-08-01T00:44:39;98977.06;;;21.65;71.42
28588;BME280;15787;49.662;10.162;2022-08-01T00:47:07;98977.56;;;21.58;71.17
28588;BME280;15787;49.662;10.162;2022-08-01T00:49:37;98978.59;;;21.60;71.36
28588;BME280;15787;49.662;10.162;2022-08-01T00:52:05;98984.13;;;21.80;71.31
28588;BME280;15787;49.662;10.162;2022-08-01T00:54:34;98978.56;;;21.55;71.80
28588;BME280;15787;49.662;10.162;2022-08-01T00:57:02;98976.53;;;21.61;71.75
28588;BME280;15787;49.662;10.162;2022-08-01T00:59:36;98982.50;;;21.63;72.06
28588;BME280;15787;49.662;10.162;2022-08-01T01:02:06;98977.28;;;21.61;72.25
28588;BME280;15787;49.662;10.162;2022-08-01T01:04:43;98982.38;;;21.46;72.72
28588;BME280;15787;49.662;10.162;2022-08-01T01:07:16;98987.25;;;21.40;73.45
28588;BME280;15787;49.662;10.162;2022-08-01T01:09:51;98984.69;;;21.42;73.15
28588;BME280;15787;49.662;10.162;2022-08-01T01:12:28;98990.88;;;21.46;74.01
28588;BME280;15787;49.662;10.162;2022-08-01T01:15:07;98991.81;;;21.26;74.61
28588;BME280;15787;49.662;10.162;2022-08-01T01:17:39;98990.78;;;21.29;74.45
28588;BME280;15787;49.662;10.162;2022-08-01T01:20:20;98989.75;;;21.01;75.05
28588;BME280;15787;49.662;10.162;2022-08-01T01:22:59;98990.69;;;21.18;75.22
28588;BME280;15787;49.662;10.162;2022-08-01T01:25:41;98994.53;;;21.10;76.15
28588;BME280;15787;49.662;10.162;2022-08-01T01:28:20;98993.06;;;21.20;75.42
28588;BME280;15787;49.662;10.162;2022-08-01T01:30:57;98993.47;;;21.07;75.70
28588;BME280;15787;49.662;10.162;2022-08-01T01:33:26;98992.81;;;20.98;76.03
28588;BME280;15787;49.662;10.162;2022-08-01T01:35:59;98998.16;;;20.85;76.41
28588;BME280;15787;49.662;10.162;2022-08-01T01:38:35;98996.31;;;20.82;76.18
28588;BME280;15787;49.662;10.162;2022-08-01T01:41:04;98997.50;;;20.69;76.60
28588;BME280;15787;49.662;10.162;2022-08-01T01:43:33;98999.09;;;20.76;76.69
28588;BME280;15787;49.662;10.162;2022-08-01T01:46:05;99000.28;;;20.64;76.75
28588;BME280;15787;49.662;10.162;2022-08-01T01:48:35;99005.09;;;20.58;77.39
28588;BME280;15787;49.662;10.162;2022-08-01T01:51:05;99003.19;;;20.49;77.39
28588;BME280;15787;49.662;10.162;2022-08-01T01:53:34;99003.44;;;20.46;78.00
28588;BME280;15787;49.662;10.162;2022-08-01T01:56:03;99000.41;;;20.29;77.89
28588;BME280;15787;49.662;10.162;2022-08-01T01:58:33;98997.41;;;20.18;78.34
28588;BME280;15787;49.662;10.162;2022-08-01T02:01:02;98999.97;;;20.16;79.17
28588;BME280;15787;49.662;10.162;2022-08-01T02:03:42;99012.72;;;20.06;79.29
28588;BME280;15787;49.662;10.162;2022-08-01T02:06:12;99006.41;;;19.76;79.71
28588;BME280;15787;49.662;10.162;2022-08-01T02:08:42;99009.31;;;19.82;79.84
28588;BME280;15787;49.662;10.162;2022-08-01T02:11:11;99012.34;;;19.78;80.35
28588;BME280;15787;49.662;10.162;2022-08-01T02:13:53;99005.69;;;19.61;80.18
28588;BME280;15787;49.662;10.162;2022-08-01T02:16:25;99006.97;;;19.60;81.49
28588;BME280;15787;49.662;10.162;2022-08-01T02:18:54;99009.09;;;19.65;81.58
28588;BME280;15787;49.662;10.162;2022-08-01T02:21:26;99013.38;;;19.40;81.89
28588;BME280;15787;49.662;10.162;2022-08-01T02:24:00;99024.00;;;19.31;82.74
28588;BME280;15787;49.662;10.162;2022-08-01T02:26:32;99022.16;;;19.28;82.92
28588;BME280;15787;49.662;10.162;2022-08-01T02:29:05;99023.50;;;19.32;82.69
28588;BME280;15787;49.662;10.162;2022-08-01T02:31:38;99031.72;;;19.30;82.71
28588;BME280;15787;49.662;10.162;2022-08-01T02:34:10;99026.66;;;19.34;82.74
28588;BME280;15787;49.662;10.162;2022-08-01T02:36:40;99024.56;;;19.35;82.63
28588;BME280;15787;49.662;10.162;2022-08-01T02:39:13;99023.06;;;19.19;83.33
28588;BME280;15787;49.662;10.162;2022-08-01T02:41:45;99031.94;;;19.27;83.47
28588;BME280;15787;49.662;10.162;2022-08-01T02:44:20;99026.66;;;19.20;83.36
28588;BME280;15787;49.662;10.162;2022-08-01T02:46:52;99028.91;;;19.16;83.10
28588;BME280;15787;49.662;10.162;2022-08-01T02:49:24;99031.06;;;19.21;83.19
28588;BME280;15787;49.662;10.162;2022-08-01T02:51:54;99028.72;;;19.19;83.09
28588;BME280;15787;49.662;10.162;2022-08-01T02:54:23;99028.69;;;19.34;82.81
28588;BME280;15787;49.662;10.162;2022-08-01T02:56:52;99031.53;;;19.34;83.32
28588;BME280;15787;49.662;10.162;2022-08-01T02:59:24;99037.00;;;19.37;83.49
28588;BME280;15787;49.662;10.162;2022-08-01T03:01:57;99040.78;;;19.34;83.77
28588;BME280;15787;49.662;10.162;2022-08-01T03:04:30;99045.28;;;19.41;84.04
28588;BME280;15787;49.662;10.162;2022-08-01T03:07:02;99043.91;;;19.36;84.28
28588;BME280;15787;49.662;10.162;2022-08-01T03:09:32;99037.00;;;19.37;84.45
28588;BME280;15787;49.662;10.162;2022-08-01T03:12:04;99037.97;;;19.34;84.78
28588;BME280;15787;49.662;10.162;2022-08-01T03:14:36;99043.72;;;19.40;85.37
28588;BME280;15787;49.662;10.162;2022-08-01T03:17:07;99048.00;;;19.35;85.20
28588;BME280;15787;49.662;10.162;2022-08-01T03:19:39;99035.91;;;19.49;85.22
28588;BME280;15787;49.662;10.162;2022-08-01T03:22:08;99034.50;;;19.60;84.70
28588;BME280;15787;49.662;10.162;2022-08-01T03:24:40;99040.31;;;19.71;84.78
28588;BME280;15787;49.662;10.162;2022-08-01T03:27:09;99037.22;;;19.69;84.29
28588;BME280;15787;49.662;10.162;2022-08-01T03:29:39;99045.00;;;19.74;83.89
28588;BME280;15787;49.662;10.162;2022-08-01T03:32:09;99048.28;;;19.87;83.66
28588;BME280;15787;49.662;10.162;2022-08-01T03:34:39;99050.47;;;19.77;83.38
28588;BME280;15787;49.662;10.162;2022-08-01T03:37:12;99048.44;;;19.78;83.67
28588;BME280;15787;49.662;10.162;2022-08-01T03:39:47;99061.31;;;19.79;83.80
28588;BME280;15787;49.662;10.162;2022-08-01T03:42:19;99050.91;;;19.70;83.46
28588;BME280;15787;49.662;10.162;2022-08-01T03:44:52;99049.03;;;19.67;84.07
28588;BME280;15787;49.662;10.162;2022-08-01T03:47:24;99046.78;;;19.71;83.56
28588;BME280;15787;49.662;10.162;2022-08-01T03:49:57;99055.22;;;19.86;83.26
28588;BME280;15787;49.662;10.162;2022-08-01T03:52:27;99054.31;;;19.94;82.48
28588;BME280;15787;49.662;10.162;2022-08-01T03:54:59;99054.22;;;19.89;83.23
28588;BME280;15787;49.662;10.162;2022-08-01T03:57:28;99048.72;;;20.20;83.07
28588;BME280;15787;49.662;10.162;2022-08-01T04:00:04;99049.94;;;20.13;83.06
28588;BME280;15787;49.662;10.162;2022-08-01T04:02:38;99051.06;;;20.01;83.57
28588;BME280;15787;49.662;10.162;2022-08-01T04:05:08;99042.72;;;20.12;83.73
28588;BME280;15787;49.662;10.162;2022-08-01T04:07:36;99055.22;;;20.06;83.66
28588;BME280;15787;49.662;10.162;2022-08-01T04:10:06;99050.78;;;20.19;83.55
28588;BME280;15787;49.662;10.162;2022-08-01T04:12:34;99061.72;;;20.27;83.42
28588;BME280;15787;49.662;10.162;2022-08-01T04:15:03;99047.69;;;20.38;83.34
28588;BME280;15787;49.662;10.162;2022-08-01T04:17:31;99059.75;;;20.33;83.17
28588;BME280;15787;49.662;10.162;2022-08-01T04:19:59;99067.09;;;20.45;82.86
28588;BME280;15787;49.662;10.162;2022-08-01T04:22:28;99059.31;;;20.40;83.00
28588;BME280;15787;49.662;10.162;2022-08-01T04:24:57;99068.88;;;20.42;83.23
28588;BME280;15787;49.662;10.162;2022-08-01T04:27:29;99066.81;;;20.43;83.58
28588;BME280;15787;49.662;10.162;2022-08-01T04:30:19;99069.63;;;20.63;83.18
28588;BME280;15787;49.662;10.162;2022-08-01T04:32:50;99080.53;;;20.70;82.73
28588;BME280;15787;49.662;10.162;2022-08-01T04:35:20;99073.59;;;20.71;82.41
28588;BME280;15787;49.662;10.162;2022-08-01T04:38:10;99076.63;;;20.67;82.36
28588;BME280;15787;49.662;10.162;2022-08-01T04:40:41;99078.72;;;20.67;82.66
28588;BME280;15787;49.662;10.162;2022-08-01T04:43:09;99081.13;;;20.74;82.84
28588;BME280;15787;49.662;10.162;2022-08-01T04:45:41;99084.94;;;20.71;82.83
28588;BME280;15787;49.662;10.162;2022-08-01T04:48:11;99091.13;;;20.69;83.31
28588;BME280;15787;49.662;10.162;2022-08-01T04:50:41;99087.38;;;20.58;83.43
28588;BME280;15787;49.662;10.162;2022-08-01T04:53:14;99093.19;;;20.69;83.47
28588;BME280;15787;49.662;10.162;2022-08-01T04:55:44;99088.28;;;20.49;84.05
28588;BME280;15787;49.662;10.162;2022-08-01T04:58:14;99086.22;;;20.70;83.88
28588;BME280;15787;49.662;10.162;2022-08-01T05:00:44;99088.78;;;20.68;83.62
28588;BME280;15787;49.662;10.162;2022-08-01T05:03:13;99095.31;;;20.74;83.35
28588;BME280;15787;49.662;10.162;2022-08-01T05:05:40;99095.56;;;20.76;83.60
28588;BME280;15787;49.662;10.162;2022-08-01T05:08:08;99098.47;;;20.82;83.62
28588;BME280;15787;49.662;10.162;2022-08-01T05:10:38;99104.31;;;20.98;82.89
28588;BME280;15787;49.662;10.162;2022-08-01T05:13:05;99097.03;;;20.92;83.14
28588;BME280;15787;49.662;10.162;2022-08-01T05:15:34;99106.84;;;20.70;83.31
28588;BME280;15787;49.662;10.162;2022-08-01T05:18:03;99095.06;;;20.77;84.24
28588;BME280;15787;49.662;10.162;2022-08-01T05:20:34;99100.16;;;21.19;82.82
28588;BME280;15787;49.662;10.162;2022-08-01T05:23:01;99101.34;;;21.07;82.56
28588;BME280;15787;49.662;10.162;2022-08-01T05:25:30;99096.56;;;21.19;82.93
28588;BME280;15787;49.662;10.162;2022-08-01T05:28:19;99093.63;;;21.39;82.38
28588;BME280;15787;49.662;10.162;2022-08-01T05:30:47;99103.56;;;21.55;81.62
28588;BME280;15787;49.662;10.162;2022-08-01T05:33:15;99100.56;;;21.69;80.94
28588;BME280;15787;49.662;10.162;2022-08-01T05:35:43;99105.56;;;21.80;80.93
28588;BME280;15787;49.662;10.162;2022-08-01T05:38:14;99103.88;;;21.62;81.08
28588;BME280;15787;49.662;10.162;2022-08-01T05:40:42;99104.09;;;21.59;81.67
28588;BME280;15787;49.662;10.162;2022-08-01T05:43:10;99105.16;;;21.92;80.77
28588;BME280;15787;49.662;10.162;2022-08-01T05:45:39;99107.56;;;21.74;80.77
28588;BME280;15787;49.662;10.162;2022-08-01T05:48:08;99107.38;;;22.14;80.77
28588;BME280;15787;49.662;10.162;2022-08-01T05:50:36;99111.31;;;21.85;81.47
28588;BME280;15787;49.662;10.162;2022-08-01T05:53:03;99110.06;;;21.92;80.92
28588;BME280;15787;49.662;10.162;2022-08-01T05:55:31;99112.91;;;21.86;81.01
28588;BME280;15787;49.662;10.162;2022-08-01T05:57:59;99108.88;;;22.10;80.92
28588;BME280;15787;49.662;10.162;2022-08-01T06:00:27;99104.09;;;22.27;80.22
28588;BME280;15787;49.662;10.162;2022-08-01T06:02:56;99102.50;;;22.26;80.45
28588;BME280;15787;49.662;10.162;2022-08-01T06:05:24;99110.75;;;22.18;80.63
28588;BME280;15787;49.662;10.162;2022-08-01T06:07:52;99102.13;;;22.55;79.53
28588;BME280;15787;49.662;10.162;2022-08-01T06:10:20;99105.06;;;22.18;79.89
28588;BME280;15787;49.662;10.162;2022-08-01T06:12:48;99110.72;;;22.13;80.74
28588;BME280;15787;49.662;10.162;2022-08-01T06:15:15;99117.78;;;22.28;80.87
28588;BME280;15787;49.662;10.162;2022-08-01T06:17:43;99113.25;;;22.58;80.00
28588;BME280;15787;49.662;10.162;2022-08-01T06:20:12;99125.13;;;22.51;79.33
28588;BME280;15787;49.662;10.162;2022-08-01T06:22:40;99125.84;;;22.41;79.98
28588;BME280;15787;49.662;10.162;2022-08-01T06:25:08;99127.63;;;22.33;80.35
28588;BME280;15787;49.662;10.162;2022-08-01T06:27:36;99132.22;;;22.25;80.30
28588;BME280;15787;49.662;10.162;2022-08-01T06:30:05;99126.63;;;22.36;80.36
28588;BME280;15787;49.662;10.162;2022-08-01T06:32:33;99128.75;;;22.52;79.32
28588;BME280;15787;49.662;10.162;2022-08-01T06:35:02;99130.56;;;22.49;79.42
28588;BME280;15787;49.662;10.162;2022-08-01T06:37:31;99124.91;;;22.60;79.58
28588;BME280;15787;49.662;10.162;2022-08-01T06:40:00;99124.47;;;22.68;78.99
28588;BME280;15787;49.662;10.162;2022-08-01T06:42:28;99130.44;;;22.75;79.68
28588;BME280;15787;49.662;10.162;2022-08-01T06:44:58;99124.97;;;22.72;79.14
28588;BME280;15787;49.662;10.162;2022-08-01T06:47:25;99127.88;;;22.83;78.59
28588;BME280;15787;49.662;10.162;2022-08-01T06:49:53;99139.47;;;22.74;78.60
28588;BME280;15787;49.662;10.162;2022-08-01T06:52:21;99141.88;;;22.92;78.47
28588;BME280;15787;49.662;10.162;2022-08-01T06:54:50;99134.63;;;22.85;78.18
28588;BME280;15787;49.662;10.162;2022-08-01T06:57:18;99137.78;;;23.09;77.79
28588;BME280;15787;49.662;10.162;2022-08-01T06:59:46;99134.22;;;23.37;77.46
28588;BME280;15787;49.662;10.162;2022-08-01T07:02:20;99140.69;;;23.43;76.27
28588;BME280;15787;49.662;10.162;2022-08-01T07:04:48;99147.72;;;23.58;75.96
28588;BME280;15787;49.662;10.162;2022-08-01T07:07:16;99139.41;;;23.66;76.11
28588;BME280;15787;49.662;10.162;2022-08-01T07:09:43;99139.66;;;23.90;74.48
28588;BME280;15787;49.662;10.162;2022-08-01T07:12:13;99143.81;;;23.78;74.54
28588;BME280;15787;49.662;10.162;2022-08-01T07:14:41;99140.72;;;23.87;74.75
28588;BME280;15787;49.662;10.162;2022-08-01T07:17:09;99137.84;;;23.98;74.25
28588;BME280;15787;49.662;10.162;2022-08-01T07:19:36;99136.28;;;23.80;74.58
28588;BME280;15787;49.662;10.162;2022-08-01T07:22:04;99145.09;;;23.99;73.76
28588;BME280;15787;49.662;10.162;2022-08-01T07:24:33;99134.19;;;24.25;73.38
28588;BME280;15787;49.662;10.162;2022-08-01T07:27:01;99134.09;;;24.53;72.33
28588;BME280;15787;49.662;10.162;2022-08-01T07:29:50;99138.72;;;24.67;71.13
28588;BME280;15787;49.662;10.162;2022-08-01T07:32:19;99137.06;;;24.94;70.69
28588;BME280;15787;49.662;10.162;2022-08-01T07:34:47;99132.72;;;24.71;70.63
28588;BME280;15787;49.662;10.162;2022-08-01T07:37:15;99134.06;;;25.16;69.88
28588;BME280;15787;49.662;10.162;2022-08-01T07:40:03;99136.84;;;24.86;70.34
28588;BME280;15787;49.662;10.162;2022-08-01T07:42:32;99133.84;;;24.51;71.40
28588;BME280;15787;49.662;10.162;2022-08-01T07:45:01;99133.31;;;24.58;69.97
28588;BME280;15787;49.662;10.162;2022-08-01T07:47:29;99127.59;;;25.10;69.86
28588;BME280;15787;49.662;10.162;2022-08-01T07:49:59;99144.03;;;24.98;69.88
28588;BME280;15787;49.662;10.162;2022-08-01T07:52:28;99133.72;;;25.31;69.24
28588;BME280;15787;49.662;10.162;2022-08-01T07:54:57;99131.28;;;25.40;68.23
28588;BME280;15787;49.662;10.162;2022-08-01T07:57:25;99134.72;;;25.33;68.27
28588;BME280;15787;49.662;10.162;2022-08-01T07:59:53;99144.53;;;25.02;68.43
28588;BME280;15787;49.662;10.162;2022-08-01T08:02:22;99131.09;;;24.92;69.48
28588;BME280;15787;49.662;10.162;2022-08-01T08:04:50;99127.22;;;25.30;68.65
28588;BME280;15787;49.662;10.162;2022-08-01T08:07:18;99126.75;;;25.91;67.34
28588;BME280;15787;49.662;10.162;2022-08-01T08:09:46;99135.41;;;25.50;66.88
28588;BME280;15787;49.662;10.162;2022-08-01T08:12:17;99121.13;;;25.80;66.77
28588;BME280;15787;49.662;10.162;2022-08-01T08:14:55;99127.84;;;26.36;65.78
28588;BME280;15787;49.662;10.162;2022-08-01T08:17:26;99128.66;;;26.80;64.81
28588;BME280;15787;49.662;10.162;2022-08-01T08:20:03;99119.75;;;25.87;65.91
28588;BME280;15787;49.662;10.162;2022-08-01T08:22:35;99123.19;;;26.82;64.14
28588;BME280;15787;49.662;10.162;2022-08-01T08:25:03;99122.66;;;26.59;64.55
28588;BME280;15787;49.662;10.162;2022-08-01T08:27:33;99127.00;;;25.63;66.36
28588;BME280;15787;49.662;10.162;2022-08-01T08:30:03;99124.47;;;25.54;67.11
28588;BME280;15787;49.662;10.162;2022-08-01T08:32:35;99132.50;;;25.56;66.79
28588;BME280;15787;49.662;10.162;2022-08-01T08:35:04;99126.88;;;26.04;66.65
28588;BME280;15787;49.662;10.162;2022-08-01T08:37:34;99123.03;;;25.96;66.85
28588;BME280;15787;49.662;10.162;2022-08-01T08:40:09;99127.88;;;26.07;66.56
28588;BME280;15787;49.662;10.162;2022-08-01T08:42:39;99133.16;;;26.27;65.19
28588;BME280;15787;49.662;10.162;2022-08-01T08:45:08;99129.50;;;26.02;65.96
28588;BME280;15787;49.662;10.162;2022-08-01T08:47:39;99125.66;;;25.70;66.85
28588;BME280;15787;49.662;10.162;2022-08-01T08:50:09;99128.31;;;25.62;66.58
28588;BME280;15787;49.662;10.162;2022-08-01T08:52:38;99124.31;;;25.36;67.75
28588;BME280;15787;49.662;10.162;2022-08-01T08:55:08;99131.88;;;25.33;67.71
28588;BME280;15787;49.662;10.162;2022-08-01T08:57:39;99124.28;;;25.00;68.95
28588;BME280;15787;49.662;10.162;2022-08-01T09:00:08;99122.66;;;25.10;68.80
28588;BME280;15787;49.662;10.162;2022-08-01T09:02:41;99131.09;;;25.33;67.95
28588;BME280;15787;49.662;10.162;2022-08-01T09:05:10;99122.66;;;25.16;68.16
28588;BME280;15787;49.662;10.162;2022-08-01T09:07:45;99123.94;;;25.56;67.63
28588;BME280;15787;49.662;10.162;2022-08-01T09:10:13;99127.38;;;26.08;67.24
28588;BME280;15787;49.662;10.162;2022-08-01T09:13:01;99135.00;;;26.00;66.17
28588;BME280;15787;49.662;10.162;2022-08-01T09:15:38;99132.84;;;26.55;65.55
28588;BME280;15787;49.662;10.162;2022-08-01T09:18:09;99136.81;;;26.27;65.63
28588;BME280;15787;49.662;10.162;2022-08-01T09:21:07;99145.97;;;26.69;64.67
28588;BME280;15787;49.662;10.162;2022-08-01T09:23:37;99136.91;;;26.16;65.25
28588;BME280;15787;49.662;10.162;2022-08-01T09:26:21;99143.25;;;25.80;66.20
28588;BME280;15787;49.662;10.162;2022-08-01T09:28:56;99141.94;;;25.81;66.09
28588;BME280;15787;49.662;10.162;2022-08-01T09:31:27;99137.94;;;25.59;66.52
28588;BME280;15787;49.662;10.162;2022-08-01T09:34:05;99136.75;;;25.79;65.79
28588;BME280;15787;49.662;10.162;2022-08-01T09:36:46;99140.09;;;25.83;66.16
28588;BME280;15787;49.662;10.162;2022-08-01T09:39:22;99142.16;;;26.36;66.17
28588;BME280;15787;49.662;10.162;2022-08-01T09:41:51;99141.97;;;26.05;66.52
28588;BME280;15787;49.662;10.162;2022-08-01T09:44:36;99142.28;;;26.50;65.25
28588;BME280;15787;49.662;10.162;2022-08-01T09:47:11;99146.75;;;26.45;64.93
28588;BME280;15787;49.662;10.162;2022-08-01T09:49:43;99147.63;;;26.83;63.79
28588;BME280;15787;49.662;10.162;2022-08-01T09:52:19;99149.41;;;27.23;63.05
28588;BME280;15787;49.662;10.162;2022-08-01T09:54:53;99146.41;;;27.53;62.55
28588;BME280;15787;49.662;10.162;2022-08-01T09:57:22;99140.88;;;27.87;61.86
28588;BME280;15787;49.662;10.162;2022-08-01T09:59:51;99129.03;;;28.09;60.08
28588;BME280;15787;49.662;10.162;2022-08-01T10:02:28;99131.69;;;28.33;59.45
28588;BME280;15787;49.662;10.162;2022-08-01T10:04:59;99132.44;;;27.44;61.48
28588;BME280;15787;49.662;10.162;2022-08-01T10:07:33;99131.59;;;27.49;61.10
28588;BME280;15787;49.662;10.162;2022-08-01T10:10:11;99131.28;;;27.97;59.90
28588;BME280;15787;49.662;10.162;2022-08-01T10:12:41;99123.22;;;28.67;58.73
28588;BME280;15787;49.662;10.162;2022-08-01T10:15:14;99129.84;;;28.49;57.63
28588;BME280;15787;49.662;10.162;2022-08-01T10:17:52;99134.34;;;27.73;58.21
28588;BME280;15787;49.662;10.162;2022-08-01T10:20:26;99129.81;;;28.23;56.33
28588;BME280;15787;49.662;10.162;2022-08-01T10:22:59;99131.81;;;29.40;55.50
28588;BME280;15787;49.662;10.162;2022-08-01T10:25:34;99129.50;;;29.38;55.51
28588;BME280;15787;49.662;10.162;2022-08-01T10:28:14;99140.28;;;29.12;55.96
28588;BME280;15787;49.662;10.162;2022-08-01T10:30:50;99126.72;;;28.86;55.58
28588;BME280;15787;49.662;10.162;2022-08-01T10:33:21;99122.81;;;29.23;55.97
28588;BME280;15787;49.662;10.162;2022-08-01T10:36:11;99115.59;;;30.33;53.93
28588;BME280;15787;49.662;10.162;2022-08-01T10:38:39;99121.50;;;29.65;54.01
28588;BME280;15787;49.662;10.162;2022-08-01T10:41:09;99109.53;;;29.95;53.52
28588;BME280;15787;49.662;10.162;2022-08-01T10:43:38;99109.09;;;30.68;52.00
28588;BME280;15787;49.662;10.162;2022-08-01T10:46:11;99109.06;;;30.96;51.94
28588;BME280;15787;49.662;10.162;2022-08-01T10:48:44;99116.41;;;30.13;52.72
28588;BME280;15787;49.662;10.162;2022-08-01T10:51:20;99102.53;;;30.67;51.39
28588;BME280;15787;49.662;10.162;2022-08-01T10:54:09;99102.25;;;30.86;50.70
28588;BME280;15787;49.662;10.162;2022-08-01T10:56:39;99112.94;;;30.35;52.71
28588;BME280;15787;49.662;10.162;2022-08-01T10:59:08;99108.22;;;30.24;52.88
28588;BME280;15787;49.662;10.162;2022-08-01T11:01:37;99110.44;;;30.39;51.52
28588;BME280;15787;49.662;10.162;2022-08-01T11:04:13;99098.13;;;30.66;51.83
28588;BME280;15787;49.662;10.162;2022-08-01T11:07:02;99100.31;;;30.45;51.10
28588;BME280;15787;49.662;10.162;2022-08-01T11:09:40;99101.09;;;30.89;51.05
28588;BME280;15787;49.662;10.162;2022-08-01T11:12:17;99101.63;;;30.73;50.02
28588;BME280;15787;49.662;10.162;2022-08-01T11:15:24;99097.94;;;31.08;49.06
28588;BME280;15787;49.662;10.162;2022-08-01T11:17:57;99091.41;;;30.08;50.73
28588;BME280;15787;49.662;10.162;2022-08-01T11:20:27;99095.19;;;30.95;49.80
28588;BME280;15787;49.662;10.162;2022-08-01T11:23:27;99086.56;;;31.99;49.10
28588;BME280;15787;49.662;10.162;2022-08-01T11:26:10;99085.19;;;32.37;48.15
28588;BME280;15787;49.662;10.162;2022-08-01T11:28:39;99074.44;;;31.77;49.50
28588;BME280;15787;49.662;10.162;2022-08-01T11:31:27;99088.78;;;30.45;51.42
28588;BME280;15787;49.662;10.162;2022-08-01T11:33:55;99086.59;;;30.66;51.09
28588;BME280;15787;49.662;10.162;2022-08-01T11:36:28;99082.53;;;30.98;50.23
28588;BME280;15787;49.662;10.162;2022-08-01T11:39:18;99084.09;;;31.06;48.80
28588;BME280;15787;49.662;10.162;2022-08-01T11:41:47;99078.00;;;30.82;50.22
28588;BME280;15787;49.662;10.162;2022-08-01T11:44:18;99072.81;;;30.80;50.30
28588;BME280;15787;49.662;10.162;2022-08-01T11:47:02;99076.41;;;30.65;49.65
28588;BME280;15787;49.662;10.162;2022-08-01T11:49:46;99073.16;;;30.05;50.92
28588;BME280;15787;49.662;10.162;2022-08-01T11:52:18;99073.16;;;29.43;51.69
28588;BME280;15787;49.662;10.162;2022-08-01T11:54:51;99064.56;;;30.41;51.10
28588;BME280;15787;49.662;10.162;2022-08-01T11:57:21;99066.81;;;31.06;49.69
28588;BME280;15787;49.662;10.162;2022-08-01T12:00:01;99063.78;;;30.76;49.25
28588;BME280;15787;49.662;10.162;2022-08-01T12:02:40;99075.69;;;31.23;48.18
28588;BME280;15787;49.662;10.162;2022-08-01T12:05:12;99070.44;;;30.63;48.91
28588;BME280;15787;49.662;10.162;2022-08-01T12:07:42;99069.09;;;30.64;49.58
28588;BME280;15787;49.662;10.162;2022-08-01T12:10:14;99062.09;;;30.17;50.08
28588;BME280;15787;49.662;10.162;2022-08-01T12:12:43;99069.72;;;29.65;50.47
28588;BME280;15787;49.662;10.162;2022-08-01T12:15:13;99065.97;;;29.16;51.81
28588;BME280;15787;49.662;10.162;2022-08-01T12:17:42;99070.84;;;28.61;52.44
28588;BME280;15787;49.662;10.162;2022-08-01T12:20:28;99063.53;;;29.20;51.36
28588;BME280;15787;49.662;10.162;2022-08-01T12:22:59;99054.00;;;29.25;51.84
28588;BME280;15787;49.662;10.162;2022-08-01T12:25:29;99054.78;;;29.67;51.53
28588;BME280;15787;49.662;10.162;2022-08-01T12:28:00;99062.44;;;29.85;51.17
28588;BME280;15787;49.662;10.162;2022-08-01T12:30:30;99056.88;;;29.46;51.12
28588;BME280;15787;49.662;10.162;2022-08-01T12:33:02;99061.66;;;29.43;52.74
28588;BME280;15787;49.662;10.162;2022-08-01T12:35:31;99051.53;;;29.50;51.90
28588;BME280;15787;49.662;10.162;2022-08-01T12:38:00;99058.84;;;29.92;51.43
28588;BME280;15787;49.662;10.162;2022-08-01T12:40:33;99055.72;;;29.82;51.41
28588;BME280;15787;49.662;10.162;2022-08-01T12:43:03;99046.16;;;29.87;52.05
28588;BME280;15787;49.662;10.162;2022-08-01T12:45:33;99055.31;;;29.24;52.62
28588;BME280;15787;49.662;10.162;2022-08-01T12:48:02;99061.22;;;29.60;52.60
28588;BME280;15787;49.662;10.162;2022-08-01T12:50:37;99053.03;;;29.64;52.50
28588;BME280;15787;49.662;10.162;2022-08-01T12:53:05;99062.31;;;29.77;52.14
28588;BME280;15787;49.662;10.162;2022-08-01T12:55:43;99052.31;;;29.50;51.49
28588;BME280;15787;49.662;10.162;2022-08-01T12:58:30;99045.88;;;29.78;51.86
28588;BME280;15787;49.662;10.162;2022-08-01T13:01:03;99051.31;;;29.27;51.91
28588;BME280;15787;49.662;10.162;2022-08-01T13:03:32;99042.69;;;29.89;51.53
28588;BME280;15787;49.662;10.162;2022-08-01T13:06:00;99040.88;;;29.58;51.62
28588;BME280;15787;49.662;10.162;2022-08-01T13:08:30;99044.97;;;30.39;50.07
28588;BME280;15787;49.662;10.162;2022-08-01T13:11:02;99037.09;;;30.12;50.51
28588;BME280;15787;49.662;10.162;2022-08-01T13:13:38;99044.59;;;29.66;51.48
28588;BME280;15787;49.662;10.162;2022-08-01T13:16:08;99041.44;;;30.69;50.31